»·PEaware :: N588W KONT-KOLS

N588W :: KONT-KOLS

FLIGHT INFORMATION

Flight Status: Arrived
Operator: Privately registered:
United States
More flights under this callsign
Pilot: Drew L. (13237)
Aircraft: CESSNA 510 CITATION MUSTANG
(C510)
More flights by this aircraft type
Origin: KONT Ontario Intl
United States
Destination: KOLS Nogales Intl
United States
More flights between these airports :: More routes between these airports
Route: +RAJEE3 MTBAL BLH GBN TUS ARVEY
File this flight plan on PilotEdge
Remarks:
Altitude:
(Current/Filed)
35,000ft
Speed:
(Current/Filed)
220kts
Departed: 29-Jun-20 03:49 PM
Arrived: 29-Jun-20 04:59 PM
Distance/Time
Traveled:
376nm/1:10
Distance/Time
To Go:
Arrived

Flight Plot

Page will automatically refresh every two minutes.

Flight plan parsing failed; only flown route is shown


Map Options




Map Legend


Flown Route
Filed Route
Departure Airport
Arrival Airport
Navaid (VOR, NDB)
Fix

Horizontal Profiles

Position Reports

Time Latitude Longitude Heading Altitude Ground
Speed
29-Jun-20 15:31 34.051356 -117.600990 237 908ft 0kts
29-Jun-20 15:32 34.051356 -117.600990 237 908ft 0kts
29-Jun-20 15:33 34.051356 -117.600990 237 908ft 0kts
29-Jun-20 15:34 34.051356 -117.600990 237 908ft 0kts
29-Jun-20 15:35 34.051356 -117.600990 237 908ft 0kts
29-Jun-20 15:36 34.051356 -117.600990 237 908ft 0kts
29-Jun-20 15:37 34.051356 -117.600990 237 908ft 0kts
29-Jun-20 15:38 34.051356 -117.600990 237 908ft 0kts
29-Jun-20 15:38 34.051356 -117.600990 237 908ft 0kts
29-Jun-20 15:40 34.051356 -117.600990 237 908ft 0kts
29-Jun-20 15:41 34.051356 -117.600990 237 908ft 0kts
29-Jun-20 15:41 34.051356 -117.600990 237 908ft 0kts
29-Jun-20 15:43 34.051356 -117.600990 237 908ft 0kts
29-Jun-20 15:43 34.052612 -117.601532 328 912ft 18kts
29-Jun-20 15:45 34.053856 -117.597806 89 915ft 23kts
29-Jun-20 15:45 34.053861 -117.591964 89 915ft 17kts
29-Jun-20 15:46 34.053867 -117.585840 89 915ft 26kts
29-Jun-20 15:47 34.054982 -117.583034 269 923ft 11kts
29-Jun-20 15:48 34.052124 -117.617708 229 2372ft 139kts
29-Jun-20 15:49 34.013583 -117.601685 150 5698ft 180kts
29-Jun-20 15:50 33.962221 -117.563349 148 7667ft 279kts
29-Jun-20 15:51 33.893868 -117.509593 145 7005ft 292kts
29-Jun-20 15:52 33.826826 -117.453311 145 7006ft 294kts
29-Jun-20 15:53 33.757515 -117.395258 144 7721ft 317kts
29-Jun-20 15:54 33.705998 -117.311719 93 8024ft 339kts
29-Jun-20 15:55 33.696582 -117.212726 91 12598ft 256kts
29-Jun-20 15:56 33.688166 -117.120463 91 14021ft 309kts
29-Jun-20 15:57 33.679015 -117.018238 94 16750ft 289kts
29-Jun-20 15:58 33.669682 -116.919110 97 19143ft 305kts
29-Jun-20 15:59 33.659335 -116.816439 98 21355ft 318kts
29-Jun-20 16:00 33.648343 -116.708737 98 23249ft 332kts
29-Jun-20 16:01 33.644299 -116.595364 92 24947ft 346kts
29-Jun-20 16:02 33.642057 -116.479373 92 26516ft 358kts
29-Jun-20 16:03 33.639570 -116.357111 92 27984ft 368kts
29-Jun-20 16:04 33.636926 -116.232334 92 29295ft 378kts
29-Jun-20 16:05 33.633505 -116.104318 90 30469ft 388kts
29-Jun-20 16:06 33.630855 -115.973905 90 31566ft 396kts
29-Jun-20 16:07 33.627822 -115.840288 90 32614ft 403kts
29-Jun-20 16:08 33.624348 -115.704626 90 33558ft 411kts
29-Jun-20 16:09 33.620683 -115.566523 91 34462ft 417kts
29-Jun-20 16:10 33.616685 -115.424689 91 34749ft 437kts
29-Jun-20 16:11 33.612553 -115.281970 91 34738ft 419kts
29-Jun-20 16:12 33.608478 -115.144293 92 34750ft 409kts
29-Jun-20 16:13 33.604486 -115.008850 93 34752ft 404kts
29-Jun-20 16:14 33.600113 -114.874763 94 34759ft 402kts
29-Jun-20 16:15 33.590767 -114.742103 112 34759ft 395kts
29-Jun-20 16:16 33.553984 -114.618054 114 34757ft 394kts
29-Jun-20 16:17 33.516914 -114.494740 114 34759ft 394kts
29-Jun-20 16:18 33.479779 -114.370804 114 34759ft 395kts
29-Jun-20 16:19 33.442526 -114.247034 114 34748ft 394kts
29-Jun-20 16:20 33.405251 -114.123529 114 34763ft 392kts
29-Jun-20 16:21 33.368132 -114.000984 114 34779ft 392kts
29-Jun-20 16:22 33.330813 -113.878523 114 34779ft 393kts
29-Jun-20 16:23 33.293218 -113.755507 114 34782ft 393kts
29-Jun-20 16:24 33.255662 -113.632872 114 34781ft 393kts
29-Jun-20 16:25 33.217965 -113.510565 114 34779ft 394kts
29-Jun-20 16:26 33.179924 -113.387523 114 34777ft 394kts
29-Jun-20 16:27 33.142043 -113.265517 115 34757ft 394kts
29-Jun-20 16:28 33.103816 -113.142990 115 34759ft 392kts
29-Jun-20 16:29 33.065654 -113.021193 115 34761ft 390kts
29-Jun-20 16:30 33.027836 -112.900923 114 34762ft 385kts
29-Jun-20 16:31 32.990382 -112.782394 114 34761ft 379kts
29-Jun-20 16:32 32.952297 -112.666536 122 34750ft 370kts
29-Jun-20 16:33 32.901997 -112.560724 123 34762ft 366kts
29-Jun-20 16:34 32.851445 -112.455493 123 34766ft 365kts
29-Jun-20 16:35 32.801018 -112.350787 123 34767ft 365kts
29-Jun-20 16:36 32.750329 -112.245759 124 34761ft 364kts
29-Jun-20 16:37 32.699442 -112.140689 124 33913ft 370kts
29-Jun-20 16:38 32.647787 -112.034277 124 32325ft 374kts
29-Jun-20 16:39 32.595778 -111.927423 124 30736ft 374kts
29-Jun-20 16:40 32.543793 -111.820902 124 29144ft 372kts
29-Jun-20 16:41 32.492157 -111.715477 124 27559ft 369kts
29-Jun-20 16:42 32.440822 -111.610965 124 25975ft 366kts
29-Jun-20 16:43 32.374343 -111.527715 151 24380ft 348kts
29-Jun-20 16:44 32.294130 -111.463296 150 22633ft 349kts
29-Jun-20 16:45 32.214477 -111.398871 150 20855ft 347kts
29-Jun-20 16:46 32.135019 -111.334671 150 19056ft 344kts
29-Jun-20 16:47 32.056556 -111.271401 150 17233ft 340kts
29-Jun-20 16:48 31.979083 -111.209059 150 15414ft 337kts
29-Jun-20 16:49 31.902305 -111.147406 150 13594ft 333kts
29-Jun-20 16:50 31.825618 -111.085937 151 11794ft 330kts
29-Jun-20 16:51 31.750741 -111.025983 151 10946ft 311kts
29-Jun-20 16:52 31.679781 -110.973849 164 11004ft 290kts
29-Jun-20 16:53 31.606485 -110.938534 163 9907ft 272kts
29-Jun-20 16:54 31.538832 -110.906102 163 7900ft 258kts
29-Jun-20 16:55 31.491882 -110.864030 149 6259ft 150kts
29-Jun-20 16:56 31.463049 -110.834443 150 5098ft 128kts
29-Jun-20 16:57 31.432757 -110.830019 218 4402ft 113kts
29-Jun-20 16:58 31.416552 -110.849362 225 3888ft 23kts
29-Jun-20 16:59 31.417418 -110.850776 70 3883ft 5kts
29-Jun-20 17:00 31.417484 -110.850765 225 3883ft 0kts

Navigation Log

Ident Type
Flight plan parsing failed, navigation log unavailable